createdAt,value
2019-03-26T00:00:45.098Z,100321.19
2019-03-26T00:03:14.661Z,100320.14
2019-03-26T00:05:44.215Z,100320.03
2019-03-26T00:08:13.732Z,100316.73
2019-03-26T00:10:43.432Z,100311.23
2019-03-26T00:13:12.903Z,100303.45
2019-03-26T00:15:42.341Z,100309.46
2019-03-26T00:18:11.828Z,100308.20
2019-03-26T00:20:41.301Z,100300.33
2019-03-26T00:23:12.042Z,100308.09
2019-03-26T00:25:41.476Z,100304.46
2019-03-26T00:28:10.975Z,100305.30
2019-03-26T00:30:40.468Z,100303.00
2019-03-26T00:33:09.885Z,100296.56
2019-03-26T00:35:39.583Z,100285.97
2019-03-26T00:38:09.058Z,100284.84
2019-03-26T00:40:40.176Z,100287.43
2019-03-26T00:43:09.934Z,100286.39
2019-03-26T00:45:39.462Z,100282.77
2019-03-26T00:48:08.946Z,100284.42
2019-03-26T00:50:38.486Z,100292.71
2019-03-26T00:53:07.930Z,100296.53
2019-03-26T00:55:37.383Z,100304.84
2019-03-26T00:58:06.995Z,100295.52
2019-03-26T01:00:37.876Z,100303.00
2019-03-26T01:03:07.338Z,100300.92
2019-03-26T01:05:36.947Z,100312.33
2019-03-26T01:08:06.504Z,100308.70
2019-03-26T01:10:35.974Z,100312.94
2019-03-26T01:13:05.661Z,100310.67
2019-03-26T01:15:35.137Z,100309.74
2019-03-26T01:18:04.690Z,100303.81
2019-03-26T01:20:34.207Z,100307.86
2019-03-26T01:23:03.815Z,100314.60
2019-03-26T01:25:33.198Z,100320.11
2019-03-26T01:28:02.788Z,100316.14
2019-03-26T01:30:33.318Z,100305.50
2019-03-26T01:33:02.785Z,100316.06
2019-03-26T01:35:32.526Z,100316.06
2019-03-26T01:38:02.069Z,100314.41
2019-03-26T01:40:31.625Z,100317.95
2019-03-26T01:43:01.162Z,100311.70
2019-03-26T01:45:31.524Z,100310.36
2019-03-26T01:48:00.957Z,100310.98
2019-03-26T01:50:30.568Z,100305.77
2019-03-26T01:53:00.108Z,100311.48
2019-03-26T01:55:29.778Z,100305.77
2019-03-26T01:57:59.489Z,100312.33
2019-03-26T02:00:28.992Z,100321.27
2019-03-26T02:02:58.496Z,100321.34
2019-03-26T02:05:28.032Z,100325.20
2019-03-26T02:07:57.504Z,100319.58
2019-03-26T02:10:27.112Z,100319.58
2019-03-26T02:12:56.604Z,100333.06
2019-03-26T02:15:30.894Z,100341.19
2019-03-26T02:18:00.477Z,100345.55
2019-03-26T02:20:30.020Z,100342.62
2019-03-26T02:22:59.565Z,100348.44
2019-03-26T02:25:29.085Z,100350.32
2019-03-26T02:27:58.679Z,100344.31
2019-03-26T02:30:28.695Z,100344.51
2019-03-26T02:32:58.930Z,100342.04
2019-03-26T02:35:28.373Z,100351.37
2019-03-26T02:37:57.870Z,100369.10
2019-03-26T02:40:27.443Z,100349.59
2019-03-26T02:42:57.017Z,100359.66
2019-03-26T02:45:26.460Z,100361.73
2019-03-26T02:47:56.064Z,100359.55
2019-03-26T02:50:25.606Z,100355.61
2019-03-26T02:52:55.037Z,100369.83
2019-03-26T02:55:24.479Z,100368.17
2019-03-26T02:57:53.971Z,100373.99
2019-03-26T03:00:23.516Z,100368.59
2019-03-26T03:02:53.022Z,100378.16
2019-03-26T03:05:35.321Z,100371.72
2019-03-26T03:07:53.650Z,100381.78
2019-03-26T03:10:23.265Z,100381.67
2019-03-26T03:12:52.729Z,100372.65
2019-03-26T03:15:22.250Z,100385.59
2019-03-26T03:17:51.799Z,100373.14
2019-03-26T03:20:21.275Z,100363.89
2019-03-26T03:22:50.754Z,100372.64
2019-03-26T03:25:20.346Z,100376.70
2019-03-26T03:27:49.856Z,100380.00
2019-03-26T03:30:19.244Z,100384.48
2019-03-26T03:32:48.883Z,100398.89
2019-03-26T03:35:18.304Z,100389.06
2019-03-26T03:37:47.745Z,100391.96
2019-03-26T03:40:17.217Z,100394.96
2019-03-26T03:42:46.677Z,100398.59
2019-03-26T03:45:19.480Z,100400.36
2019-03-26T03:47:49.036Z,100409.00
2019-03-26T03:50:18.491Z,100402.64
2019-03-26T03:52:47.960Z,100406.14
2019-03-26T03:55:17.404Z,100410.95
2019-03-26T03:57:46.808Z,100408.47
2019-03-26T04:00:19.678Z,100406.61
2019-03-26T04:02:49.173Z,100414.40
2019-03-26T04:05:18.543Z,100410.73
2019-03-26T04:07:48.041Z,100410.97
2019-03-26T04:10:17.517Z,100415.95
2019-03-26T04:12:47.160Z,100412.01
2019-03-26T04:15:16.763Z,100425.70
2019-03-26T04:17:46.226Z,100425.81
2019-03-26T04:20:15.774Z,100422.80
2019-03-26T04:22:45.490Z,100429.00
2019-03-26T04:25:14.941Z,100428.38
2019-03-26T04:27:44.432Z,100420.92
2019-03-26T04:30:17.207Z,100412.08
2019-03-26T04:32:46.685Z,100415.94
2019-03-26T04:35:16.112Z,100409.31
2019-03-26T04:37:46.178Z,100409.13
2019-03-26T04:40:15.564Z,100398.33
2019-03-26T04:42:45.026Z,100394.28
2019-03-26T04:45:14.568Z,100403.61
2019-03-26T04:47:44.154Z,100406.84
2019-03-26T04:50:13.531Z,100408.20
2019-03-26T04:52:42.992Z,100421.16
2019-03-26T04:55:20.361Z,100431.75
2019-03-26T04:57:49.640Z,100425.94
2019-03-26T05:00:19.021Z,100434.96
2019-03-26T05:02:48.572Z,100425.12
2019-03-26T05:05:18.087Z,100439.48
2019-03-26T05:07:47.526Z,100436.16
2019-03-26T05:10:16.983Z,100430.67
2019-03-26T05:12:46.472Z,100434.42
2019-03-26T05:15:15.924Z,100439.08
2019-03-26T05:17:45.570Z,100436.18
2019-03-26T05:20:15.137Z,100436.82
2019-03-26T05:22:44.693Z,100436.82
2019-03-26T05:25:14.152Z,100441.07
2019-03-26T05:27:45.523Z,100437.45
2019-03-26T05:30:14.875Z,100434.13
2019-03-26T05:32:44.419Z,100435.99
2019-03-26T05:35:13.962Z,100430.80
2019-03-26T05:37:43.548Z,100434.86
2019-03-26T05:40:13.298Z,100441.38
2019-03-26T05:42:42.834Z,100443.47
2019-03-26T05:45:12.387Z,100440.13
2019-03-26T05:47:41.944Z,100440.03
2019-03-26T05:50:11.380Z,100450.30
2019-03-26T05:52:40.848Z,100451.65
2019-03-26T05:55:10.455Z,100460.25
2019-03-26T05:57:39.932Z,100465.67
2019-03-26T06:00:12.941Z,100457.70
2019-03-26T06:02:42.434Z,100464.50
2019-03-26T06:05:11.975Z,100468.94
2019-03-26T06:07:41.409Z,100467.86
2019-03-26T06:10:11.475Z,100465.16
2019-03-26T06:12:41.095Z,100456.41
2019-03-26T06:15:12.933Z,100459.22
2019-03-26T06:17:44.044Z,100457.58
2019-03-26T06:20:13.555Z,100465.80
2019-03-26T06:22:43.034Z,100463.17
2019-03-26T06:25:12.723Z,100470.89
2019-03-26T06:27:42.299Z,100475.06
2019-03-26T06:30:11.851Z,100466.76
2019-03-26T06:32:41.345Z,100464.95
2019-03-26T06:35:13.298Z,100464.47
2019-03-26T06:37:42.771Z,100473.30
2019-03-26T06:40:12.394Z,100459.77
2019-03-26T06:42:41.961Z,100451.56
2019-03-26T06:45:11.920Z,100461.09
2019-03-26T06:47:41.392Z,100478.29
2019-03-26T06:50:11.260Z,100477.24
2019-03-26T06:52:40.808Z,100476.70
2019-03-26T06:55:11.429Z,100478.11
2019-03-26T06:57:40.949Z,100471.87
2019-03-26T07:00:11.710Z,100477.17
2019-03-26T07:02:41.429Z,100478.63
2019-03-26T07:05:10.993Z,100479.95
2019-03-26T07:07:40.605Z,100482.51
2019-03-26T07:10:10.004Z,100492.11
2019-03-26T07:12:39.605Z,100502.47
2019-03-26T07:15:10.789Z,100496.96
2019-03-26T07:17:46.509Z,100503.32
2019-03-26T07:20:20.272Z,100515.39
2019-03-26T07:22:51.495Z,100514.77
2019-03-26T07:25:21.143Z,100524.33
2019-03-26T07:27:54.664Z,100515.66
2019-03-26T07:30:39.404Z,100518.50
2019-03-26T07:33:09.023Z,100519.20
2019-03-26T07:35:43.217Z,100521.92
2019-03-26T07:38:09.723Z,100517.18
2019-03-26T07:40:39.474Z,100522.48
2019-03-26T07:43:18.201Z,100516.06
2019-03-26T07:45:48.867Z,100507.98
2019-03-26T07:48:24.258Z,100520.77
2019-03-26T07:50:53.851Z,100522.16
2019-03-26T07:53:23.399Z,100518.07
2019-03-26T07:55:53.024Z,100517.12
2019-03-26T07:58:22.621Z,100517.00
2019-03-26T08:00:52.346Z,100522.98
2019-03-26T08:03:21.971Z,100518.00
2019-03-26T08:05:51.505Z,100526.80
2019-03-26T08:08:20.948Z,100521.70
2019-03-26T08:10:50.591Z,100522.94
2019-03-26T08:13:20.127Z,100522.47
2019-03-26T08:15:49.502Z,100523.19
2019-03-26T08:18:19.097Z,100525.80
2019-03-26T08:20:48.535Z,100528.25
2019-03-26T08:23:18.057Z,100528.57
2019-03-26T08:25:47.541Z,100535.54
2019-03-26T08:28:17.082Z,100539.66
2019-03-26T08:30:49.885Z,100533.31
2019-03-26T08:33:17.830Z,100540.25
2019-03-26T08:35:47.586Z,100540.25
2019-03-26T08:38:17.047Z,100535.37
2019-03-26T08:40:46.618Z,100544.05
2019-03-26T08:43:17.715Z,100551.15
2019-03-26T08:45:47.361Z,100561.81
2019-03-26T08:48:16.924Z,100560.20
2019-03-26T08:50:46.537Z,100557.02
2019-03-26T08:53:16.074Z,100553.40
2019-03-26T08:55:45.583Z,100566.77
2019-03-26T08:58:18.055Z,100554.34
2019-03-26T09:00:48.037Z,100560.89
2019-03-26T09:03:20.679Z,100560.21
2019-03-26T09:05:50.159Z,100562.67
2019-03-26T09:08:25.248Z,100561.49
2019-03-26T09:10:52.265Z,100563.16
2019-03-26T09:13:23.449Z,100563.20
2019-03-26T09:15:52.923Z,100561.79
2019-03-26T09:18:22.395Z,100569.45
2019-03-26T09:20:51.788Z,100572.75
2019-03-26T09:23:21.374Z,100568.82
2019-03-26T09:25:50.894Z,100568.98
2019-03-26T09:28:20.308Z,100562.64
2019-03-26T09:30:49.892Z,100563.31
2019-03-26T09:33:19.474Z,100550.75
2019-03-26T09:35:49.019Z,100553.59
2019-03-26T09:38:18.515Z,100553.34
2019-03-26T09:40:47.997Z,100556.62
2019-03-26T09:43:17.409Z,100555.87
2019-03-26T09:45:51.929Z,100555.33
2019-03-26T09:48:24.116Z,100560.22
2019-03-26T09:50:56.283Z,100561.80
2019-03-26T09:53:31.681Z,100562.98
2019-03-26T09:56:04.365Z,100563.48
2019-03-26T09:58:36.684Z,100550.27
2019-03-26T10:01:06.230Z,100538.21
2019-03-26T10:03:36.727Z,100376.59
2019-03-26T10:06:06.167Z,100528.33
2019-03-26T10:08:37.623Z,100538.02
2019-03-26T10:11:07.319Z,100536.29
2019-03-26T10:13:36.931Z,100541.24
2019-03-26T10:16:08.259Z,100538.94
2019-03-26T10:18:37.960Z,100535.31
2019-03-26T10:21:07.740Z,100535.15
2019-03-26T10:23:37.367Z,100523.84
2019-03-26T10:26:06.917Z,100527.82
2019-03-26T10:28:36.392Z,100530.69
2019-03-26T10:31:05.950Z,100531.13
2019-03-26T10:33:35.546Z,100530.23
2019-03-26T10:36:05.107Z,100536.45
2019-03-26T10:38:34.717Z,100523.55
2019-03-26T10:41:04.233Z,100521.14
2019-03-26T10:43:33.762Z,100519.45
2019-03-26T10:46:03.261Z,100511.93
2019-03-26T10:48:32.950Z,100516.20
2019-03-26T10:51:02.528Z,100507.17
2019-03-26T10:53:32.131Z,100515.69
2019-03-26T10:56:01.625Z,100515.39
2019-03-26T10:58:31.183Z,100513.31
2019-03-26T11:01:00.745Z,100512.45
2019-03-26T11:03:37.169Z,100510.91
2019-03-26T11:06:06.634Z,100516.03
2019-03-26T11:08:36.258Z,100519.02
2019-03-26T11:11:05.680Z,100520.03
2019-03-26T11:13:35.226Z,100525.08
2019-03-26T11:16:04.761Z,100521.50
2019-03-26T11:18:34.301Z,100526.10
2019-03-26T11:21:04.852Z,100522.58
2019-03-26T11:23:34.359Z,100528.45
2019-03-26T11:26:03.982Z,100525.03
2019-03-26T11:28:33.681Z,100518.34
2019-03-26T11:31:03.150Z,100516.88
2019-03-26T11:33:32.702Z,100516.08
2019-03-26T11:36:02.211Z,100512.84
2019-03-26T11:38:31.885Z,100510.36
2019-03-26T11:41:01.332Z,100503.73
2019-03-26T11:43:30.969Z,100503.83
2019-03-26T11:46:00.523Z,100506.00
2019-03-26T11:48:30.105Z,100511.87
2019-03-26T11:50:59.630Z,100515.14
2019-03-26T11:53:29.202Z,100520.19
2019-03-26T11:55:58.732Z,100515.23
2019-03-26T11:58:31.173Z,100511.72
2019-03-26T12:01:01.215Z,100510.50
2019-03-26T12:03:30.675Z,100512.38
2019-03-26T12:06:01.813Z,100505.22
2019-03-26T12:08:31.347Z,100504.89
2019-03-26T12:11:00.899Z,100504.33
2019-03-26T12:13:30.969Z,100495.80
2019-03-26T12:16:00.385Z,100500.43
2019-03-26T12:18:29.785Z,100493.98
2019-03-26T12:20:59.305Z,100499.75
2019-03-26T12:23:30.746Z,100494.56
2019-03-26T12:26:01.580Z,100487.46
2019-03-26T12:28:33.470Z,100490.16
2019-03-26T12:31:07.056Z,100487.35
2019-03-26T12:33:41.211Z,100490.73
2019-03-26T12:36:10.877Z,100486.96
2019-03-26T12:38:40.356Z,100484.71
2019-03-26T12:41:09.922Z,100491.03
2019-03-26T12:43:45.287Z,100484.87
2019-03-26T12:46:17.526Z,100488.45
2019-03-26T12:48:48.660Z,100484.62
2019-03-26T12:51:18.294Z,100487.60
2019-03-26T12:53:54.017Z,100479.61
2019-03-26T12:56:23.660Z,100476.88
2019-03-26T12:58:54.877Z,100462.41
2019-03-26T13:01:24.528Z,100470.95
2019-03-26T13:03:54.071Z,100471.84
2019-03-26T13:06:23.545Z,100475.95
2019-03-26T13:08:53.234Z,100480.61
2019-03-26T13:11:22.827Z,100485.41
2019-03-26T13:13:52.313Z,100477.95
2019-03-26T13:16:22.068Z,100477.95
2019-03-26T13:18:51.689Z,100479.22
2019-03-26T13:21:21.356Z,100475.64
2019-03-26T13:23:50.920Z,100479.77
2019-03-26T13:26:20.615Z,100484.63
2019-03-26T13:28:50.021Z,100486.28
2019-03-26T13:31:19.615Z,100486.25
2019-03-26T13:33:49.260Z,100477.14
2019-03-26T13:36:18.829Z,100480.69
2019-03-26T13:38:48.374Z,100475.20
2019-03-26T13:41:18.169Z,100478.61
2019-03-26T13:43:47.485Z,100481.48
2019-03-26T13:46:17.039Z,100482.92
2019-03-26T13:48:46.471Z,100481.84
2019-03-26T13:51:16.100Z,100481.05
2019-03-26T13:53:45.719Z,100478.99
2019-03-26T13:56:15.350Z,100479.16
2019-03-26T13:58:45.005Z,100474.47
2019-03-26T14:01:14.565Z,100477.48
2019-03-26T14:03:44.095Z,100478.75
2019-03-26T14:06:13.732Z,100474.08
2019-03-26T14:08:43.289Z,100466.11
2019-03-26T14:11:12.909Z,100474.27
2019-03-26T14:13:42.467Z,100477.61
2019-03-26T14:16:12.060Z,100471.16
2019-03-26T14:18:41.513Z,100469.18
2019-03-26T14:21:11.287Z,100468.24
2019-03-26T14:23:40.856Z,100471.47
2019-03-26T14:26:10.599Z,100467.75
2019-03-26T14:28:40.185Z,100469.83
2019-03-26T14:31:09.768Z,100457.42
2019-03-26T14:33:39.241Z,100476.24
2019-03-26T14:36:08.901Z,100477.66
2019-03-26T14:38:38.450Z,100477.53
2019-03-26T14:41:07.954Z,100480.55
2019-03-26T14:43:37.548Z,100480.37
2019-03-26T14:46:07.027Z,100476.11
2019-03-26T14:48:36.515Z,100483.73
2019-03-26T14:51:06.059Z,100483.17
2019-03-26T14:53:35.622Z,100490.11
2019-03-26T14:56:11.568Z,100488.07
2019-03-26T14:58:41.098Z,100489.24
2019-03-26T15:01:10.775Z,100488.66
2019-03-26T15:03:40.390Z,100489.60
2019-03-26T15:06:09.950Z,100494.23
2019-03-26T15:08:39.597Z,100495.83
2019-03-26T15:11:09.093Z,100504.98
2019-03-26T15:13:38.571Z,100502.08
2019-03-26T15:16:08.245Z,100500.55
2019-03-26T15:18:37.781Z,100520.38
2019-03-26T15:21:07.329Z,100501.27
2019-03-26T15:23:36.859Z,100512.78
2019-03-26T15:26:06.344Z,100509.21
2019-03-26T15:28:35.976Z,100509.64
2019-03-26T15:31:05.595Z,100506.41
2019-03-26T15:33:35.239Z,100515.06
2019-03-26T15:36:04.709Z,100509.74
2019-03-26T15:38:34.324Z,100511.18
2019-03-26T15:41:03.877Z,100513.13
2019-03-26T15:43:33.372Z,100503.91
2019-03-26T15:46:02.904Z,100504.80
2019-03-26T15:48:32.359Z,100503.00
2019-03-26T15:51:01.842Z,100511.01
2019-03-26T15:53:31.467Z,100503.00
2019-03-26T15:56:00.953Z,100504.79
2019-03-26T15:58:30.561Z,100497.73
2019-03-26T16:01:00.154Z,100506.45
2019-03-26T16:03:29.728Z,100512.26
2019-03-26T16:05:59.383Z,100510.42
2019-03-26T16:08:28.969Z,100525.55
2019-03-26T16:10:58.398Z,100532.09
2019-03-26T16:13:27.860Z,100535.37
2019-03-26T16:15:57.466Z,100545.72
2019-03-26T16:18:27.124Z,100554.47
2019-03-26T16:20:56.621Z,100546.82
2019-03-26T16:23:26.236Z,100559.25
2019-03-26T16:25:55.710Z,100570.22
2019-03-26T16:28:25.188Z,100569.94
2019-03-26T16:30:56.426Z,100576.35
2019-03-26T16:33:28.703Z,100585.64
2019-03-26T16:35:58.234Z,100588.44
2019-03-26T16:38:27.864Z,100595.88
2019-03-26T16:41:00.379Z,100589.59
2019-03-26T16:43:29.430Z,100596.81
2019-03-26T16:46:09.601Z,100596.09
2019-03-26T16:48:42.804Z,100597.37
2019-03-26T16:51:12.288Z,100599.37
2019-03-26T16:53:41.763Z,100602.75
2019-03-26T16:56:11.360Z,100606.75
2019-03-26T16:58:44.675Z,100619.63
2019-03-26T17:01:14.315Z,100611.13
2019-03-26T17:03:57.373Z,100620.00
2019-03-26T17:06:27.097Z,100627.31
2019-03-26T17:08:56.728Z,100631.04
2019-03-26T17:11:27.072Z,100631.84
2019-03-26T17:13:58.210Z,100636.28
2019-03-26T17:16:27.756Z,100642.32
2019-03-26T17:18:57.238Z,100644.64
2019-03-26T17:21:26.752Z,100642.77
2019-03-26T17:23:57.955Z,100645.28
2019-03-26T17:26:27.743Z,100645.28
2019-03-26T17:29:00.172Z,100655.06
2019-03-26T17:31:29.767Z,100652.27
2019-03-26T17:34:05.099Z,100657.02
2019-03-26T17:36:37.746Z,100654.97
2019-03-26T18:22:08.285Z,100676.67
2019-03-26T18:24:39.156Z,100679.58
2019-03-26T18:27:08.861Z,100686.73
2019-03-26T18:29:38.481Z,100678.64
2019-03-26T18:32:08.010Z,100670.55
2019-03-26T18:34:37.661Z,100672.50
2019-03-26T18:37:07.471Z,100680.20
2019-03-26T18:39:37.216Z,100683.94
2019-03-26T18:42:06.938Z,100682.28
2019-03-26T18:44:36.730Z,100679.58
2019-03-26T18:47:06.288Z,100679.58
2019-03-26T18:49:36.840Z,100683.63
2019-03-26T18:52:06.469Z,100683.94
2019-03-26T18:54:36.019Z,100675.85
2019-03-26T18:57:05.582Z,100680.84
2019-03-26T18:59:35.190Z,100687.18
2019-03-26T19:02:04.875Z,100686.45
2019-03-26T19:04:34.677Z,100673.55
2019-03-26T19:07:04.514Z,100682.90
2019-03-26T19:09:34.452Z,100680.50
2019-03-26T19:12:04.109Z,100685.30
2019-03-26T19:14:34.172Z,100684.98
2019-03-26T19:17:03.622Z,100683.12
2019-03-26T19:19:33.294Z,100681.86
2019-03-26T19:22:02.935Z,100689.97
2019-03-26T19:24:32.741Z,100684.03
2019-03-26T19:27:04.346Z,100689.67
2019-03-26T19:29:33.972Z,100688.90
2019-03-26T19:32:03.618Z,100695.66
2019-03-26T19:34:33.316Z,100688.28
2019-03-26T19:37:02.949Z,100693.06
2019-03-26T19:39:32.521Z,100685.19
2019-03-26T19:42:02.132Z,100691.95
2019-03-26T19:44:31.740Z,100689.02
2019-03-26T19:47:01.517Z,100693.69
2019-03-26T19:49:31.184Z,100691.17
2019-03-26T19:52:00.851Z,100694.30
2019-03-26T19:54:30.548Z,100697.63
2019-03-26T19:57:00.267Z,100698.66
2019-03-26T19:59:29.906Z,100695.22
2019-03-26T20:01:59.426Z,100701.55
2019-03-26T20:04:29.263Z,100706.41
2019-03-26T20:06:58.888Z,100703.30
2019-03-26T20:09:29.454Z,100702.13
2019-03-26T20:11:59.171Z,100698.41
2019-03-26T20:14:28.701Z,100698.41
2019-03-26T20:16:58.422Z,100698.98
2019-03-26T20:19:28.056Z,100700.25
2019-03-26T20:21:57.686Z,100692.22
2019-03-26T20:24:27.310Z,100698.80
2019-03-26T20:26:56.931Z,100699.52
2019-03-26T20:29:26.567Z,100695.66
2019-03-26T20:31:56.184Z,100696.26
2019-03-26T20:34:25.929Z,100705.36
2019-03-26T20:36:55.557Z,100702.13
2019-03-26T20:39:25.200Z,100706.73
2019-03-26T20:41:54.906Z,100698.80
2019-03-26T20:44:24.539Z,100706.77
2019-03-26T20:46:54.166Z,100708.56
2019-03-26T20:49:23.894Z,100705.48
2019-03-26T20:51:53.437Z,100706.58
2019-03-26T20:54:23.043Z,100711.39
2019-03-26T20:56:52.780Z,100719.97
2019-03-26T20:59:22.522Z,100722.64
2019-03-26T21:01:52.153Z,100725.09
2019-03-26T21:04:21.867Z,100720.88
2019-03-26T21:06:51.486Z,100723.73
2019-03-26T21:09:21.226Z,100727.84
2019-03-26T21:11:50.746Z,100731.42
2019-03-26T21:14:20.222Z,100728.19
2019-03-26T21:16:49.894Z,100733.14
2019-03-26T21:19:19.634Z,100732.16
2019-03-26T21:21:49.366Z,100729.78
2019-03-26T21:24:19.072Z,100733.91
2019-03-26T21:26:48.629Z,100734.94
2019-03-26T21:29:18.204Z,100731.83
2019-03-26T21:31:47.773Z,100728.57
2019-03-26T21:34:29.976Z,100737.05
2019-03-26T21:36:48.751Z,100737.36
2019-03-26T21:39:18.450Z,100731.52
2019-03-26T21:41:48.123Z,100737.92
2019-03-26T21:44:17.755Z,100733.31
2019-03-26T21:46:47.382Z,100741.15
2019-03-26T21:49:17.006Z,100740.97
2019-03-26T21:51:46.530Z,100737.06
2019-03-26T21:54:16.166Z,100732.70
2019-03-26T21:56:45.789Z,100735.71
2019-03-26T21:59:15.415Z,100735.98
2019-03-26T22:01:44.950Z,100731.86
2019-03-26T22:04:14.667Z,100734.34
2019-03-26T22:06:44.237Z,100723.59
2019-03-26T22:09:13.925Z,100732.09
2019-03-26T22:11:49.805Z,100729.08
2019-03-26T22:14:18.300Z,100737.23
2019-03-26T22:16:46.089Z,100738.26
2019-03-26T22:19:28.050Z,100732.73
2019-03-26T22:21:46.878Z,100742.70
2019-03-26T22:24:17.286Z,100738.70
2019-03-26T22:26:46.951Z,100741.92
2019-03-26T22:29:16.684Z,100740.97
2019-03-26T22:31:46.218Z,100743.03
2019-03-26T22:34:15.735Z,100750.59
2019-03-26T22:36:45.437Z,100754.33
2019-03-26T22:39:15.098Z,100750.67
2019-03-26T22:41:44.716Z,100759.22
2019-03-26T22:44:14.390Z,100749.89
2019-03-26T22:46:43.971Z,100751.13
2019-03-26T22:49:13.391Z,100748.96
2019-03-26T22:51:43.024Z,100746.38
2019-03-26T22:54:12.755Z,100756.06
2019-03-26T22:56:42.380Z,100749.03
2019-03-26T22:59:12.006Z,100747.45
2019-03-26T23:01:41.847Z,100748.48
2019-03-26T23:04:12.490Z,100746.16
2019-03-26T23:06:42.253Z,100745.25
2019-03-26T23:09:12.070Z,100756.02
2019-03-26T23:11:41.680Z,100752.83
2019-03-26T23:14:11.283Z,100748.02
2019-03-26T23:16:40.938Z,100755.58
2019-03-26T23:19:10.466Z,100750.54
2019-03-26T23:21:40.105Z,100746.90
2019-03-26T23:24:09.718Z,100746.48
2019-03-26T23:26:41.108Z,100742.09
2019-03-26T23:29:10.816Z,100747.63
2019-03-26T23:31:40.445Z,100738.02
2019-03-26T23:34:10.176Z,100732.31
2019-03-26T23:36:39.810Z,100726.62
2019-03-26T23:39:09.324Z,100732.97
2019-03-26T23:41:39.845Z,100730.89
2019-03-26T23:44:09.820Z,100736.91
2019-03-26T23:46:39.542Z,100729.88
2019-03-26T23:49:09.277Z,100724.89
2019-03-26T23:51:38.793Z,100720.56
2019-03-26T23:54:08.430Z,100723.22
2019-03-26T23:56:38.165Z,100720.54
2019-03-26T23:59:07.779Z,100726.70
